createdAt,value
2019-02-17T00:00:14.640Z,11.47
2019-02-17T00:02:43.117Z,10.90
2019-02-17T00:05:11.585Z,10.87
2019-02-17T00:07:40.361Z,11.30
2019-02-17T00:10:08.966Z,9.80
2019-02-17T00:12:37.435Z,9.40
2019-02-17T00:15:08.433Z,9.87
2019-02-17T00:17:37.165Z,9.30
2019-02-17T00:20:08.145Z,9.00
2019-02-17T00:22:36.802Z,9.47
2019-02-17T00:25:06.732Z,10.63
2019-02-17T00:27:35.185Z,10.10
2019-02-17T00:30:05.310Z,10.47
2019-02-17T00:32:33.771Z,10.00
2019-02-17T00:35:02.260Z,8.90
2019-02-17T00:37:30.725Z,9.90
2019-02-17T00:39:59.199Z,8.50
2019-02-17T00:42:27.933Z,8.37
2019-02-17T00:44:56.423Z,8.47
2019-02-17T00:47:24.912Z,8.07
2019-02-17T00:49:53.367Z,7.67
2019-02-17T00:52:21.915Z,6.83
2019-02-17T00:54:50.643Z,6.40
2019-02-17T00:57:19.132Z,6.00
2019-02-17T00:59:47.591Z,5.87
2019-02-17T01:02:16.058Z,5.50
2019-02-17T01:04:44.515Z,5.97
2019-02-17T01:07:13.011Z,5.73
2019-02-17T01:09:41.481Z,6.10
2019-02-17T01:12:09.929Z,6.07
2019-02-17T01:14:38.417Z,6.23
2019-02-17T01:17:06.870Z,6.03
2019-02-17T01:19:35.313Z,5.10
2019-02-17T01:22:03.849Z,5.13
2019-02-17T01:24:32.319Z,5.10
2019-02-17T01:27:00.873Z,5.17
2019-02-17T01:29:29.676Z,4.63
2019-02-17T01:31:58.490Z,4.30
2019-02-17T01:34:26.962Z,4.80
2019-02-17T01:36:55.424Z,3.83
2019-02-17T01:39:23.875Z,3.73
2019-02-17T01:41:52.356Z,4.10
2019-02-17T01:44:20.806Z,4.03
2019-02-17T01:46:49.579Z,4.47
2019-02-17T01:49:18.365Z,4.93
2019-02-17T01:51:46.856Z,5.93
2019-02-17T01:54:15.311Z,5.60
2019-02-17T01:56:43.793Z,6.47
2019-02-17T01:59:12.256Z,5.03
2019-02-17T02:01:40.726Z,4.90
2019-02-17T02:04:09.198Z,3.50
2019-02-17T02:06:37.662Z,2.90
2019-02-17T02:09:09.304Z,3.57
2019-02-17T02:11:37.741Z,2.90
2019-02-17T02:14:06.550Z,2.50
2019-02-17T02:16:35.076Z,2.90
2019-02-17T02:19:03.516Z,2.70
2019-02-17T02:21:32.000Z,3.00
2019-02-17T02:24:00.469Z,2.83
2019-02-17T02:26:29.283Z,2.60
2019-02-17T02:28:57.744Z,2.60
2019-02-17T02:31:26.210Z,2.60
2019-02-17T02:33:54.745Z,2.40
2019-02-17T02:36:23.227Z,2.50
2019-02-17T02:38:51.678Z,2.80
2019-02-17T02:41:20.130Z,2.80
2019-02-17T02:43:48.612Z,2.67
2019-02-17T02:46:17.094Z,2.80
2019-02-17T02:48:45.539Z,2.40
2019-02-17T02:51:14.302Z,2.57
2019-02-17T02:53:42.777Z,2.60
2019-02-17T02:56:11.262Z,2.67
2019-02-17T02:58:39.803Z,2.40
2019-02-17T03:01:09.670Z,3.10
2019-02-17T03:03:38.181Z,2.60
2019-02-17T03:06:13.838Z,2.47
2019-02-17T03:08:42.281Z,3.00
2019-02-17T03:11:10.738Z,3.00
2019-02-17T03:13:39.219Z,3.13
2019-02-17T03:16:07.683Z,3.67
2019-02-17T03:18:36.155Z,3.47
2019-02-17T03:21:04.597Z,3.70
2019-02-17T03:23:33.103Z,3.77
2019-02-17T03:26:01.615Z,2.90
2019-02-17T03:28:30.430Z,2.40
2019-02-17T03:30:58.909Z,2.37
2019-02-17T03:33:27.354Z,2.37
2019-02-17T03:35:55.835Z,2.00
2019-02-17T03:38:24.295Z,2.10
2019-02-17T03:40:52.767Z,2.20
2019-02-17T03:43:21.199Z,2.20
2019-02-17T03:45:49.687Z,1.77
2019-02-17T03:48:18.158Z,2.77
2019-02-17T03:50:46.987Z,3.00
2019-02-17T03:53:15.611Z,4.17
2019-02-17T03:55:44.072Z,5.00
2019-02-17T03:58:12.849Z,6.27
2019-02-17T04:00:41.308Z,6.00
2019-02-17T04:03:10.036Z,6.30
2019-02-17T04:05:38.482Z,7.27
2019-02-17T04:08:07.591Z,5.70
2019-02-17T04:10:36.154Z,6.20
2019-02-17T04:13:04.621Z,7.43
2019-02-17T04:15:33.079Z,10.17
2019-02-17T04:18:01.564Z,9.70
2019-02-17T04:20:30.029Z,9.30
2019-02-17T04:22:58.500Z,8.53
2019-02-17T04:25:26.961Z,8.20
2019-02-17T04:27:55.753Z,8.93
2019-02-17T04:30:29.407Z,8.10
2019-02-17T04:32:54.424Z,8.40
2019-02-17T04:35:22.883Z,5.47
2019-02-17T04:37:51.372Z,5.33
2019-02-17T04:40:19.817Z,5.50
2019-02-17T04:42:48.371Z,4.10
2019-02-17T04:45:16.827Z,5.33
2019-02-17T04:47:45.312Z,4.43
2019-02-17T04:50:14.025Z,4.37
2019-02-17T04:52:42.505Z,5.57
2019-02-17T04:55:10.948Z,4.93
2019-02-17T04:57:39.416Z,4.80
2019-02-17T05:00:09.719Z,5.07
2019-02-17T05:02:38.483Z,5.90
2019-02-17T05:05:07.113Z,6.00
2019-02-17T05:07:35.643Z,7.83
2019-02-17T05:10:04.563Z,7.23
2019-02-17T05:12:33.021Z,6.37
2019-02-17T05:15:01.514Z,7.13
2019-02-17T05:17:29.957Z,5.10
2019-02-17T05:19:58.443Z,4.60
2019-02-17T05:22:26.909Z,5.53
2019-02-17T05:24:55.560Z,5.60
2019-02-17T05:27:24.332Z,4.63
2019-02-17T05:29:52.777Z,5.37
2019-02-17T05:32:21.259Z,5.03
2019-02-17T05:34:49.963Z,5.73
2019-02-17T05:37:18.522Z,6.20
2019-02-17T05:39:47.041Z,6.53
2019-02-17T05:42:15.509Z,7.23
2019-02-17T05:44:43.957Z,6.50
2019-02-17T05:47:12.443Z,5.87
2019-02-17T05:49:41.182Z,5.00
2019-02-17T05:52:09.650Z,4.63
2019-02-17T05:54:38.108Z,4.40
2019-02-17T05:57:06.637Z,4.00
2019-02-17T05:59:35.095Z,4.23
2019-02-17T06:02:03.561Z,4.43
2019-02-17T06:04:32.030Z,4.20
2019-02-17T06:07:00.478Z,4.53
2019-02-17T06:09:28.935Z,4.60
2019-02-17T06:11:57.407Z,4.33
2019-02-17T06:14:25.897Z,5.23
2019-02-17T06:16:54.382Z,4.93
2019-02-17T06:19:23.174Z,5.13
2019-02-17T06:21:51.624Z,4.47
2019-02-17T06:24:20.104Z,4.67
2019-02-17T06:26:48.549Z,4.90
2019-02-17T06:29:16.999Z,4.70
2019-02-17T06:31:45.504Z,4.70
2019-02-17T06:34:13.969Z,4.07
2019-02-17T06:36:42.426Z,5.20
2019-02-17T06:39:10.909Z,5.10
2019-02-17T06:41:39.379Z,5.13
2019-02-17T06:44:07.852Z,5.10
2019-02-17T06:46:37.951Z,5.50
2019-02-17T06:49:06.412Z,5.77
2019-02-17T06:51:34.895Z,5.33
2019-02-17T06:54:03.339Z,5.40
2019-02-17T06:56:33.449Z,5.17
2019-02-17T06:59:02.258Z,6.13
2019-02-17T07:01:30.711Z,5.27
2019-02-17T07:03:59.201Z,6.00
2019-02-17T07:06:29.359Z,5.20
2019-02-17T07:08:57.857Z,6.30
2019-02-17T07:11:26.324Z,5.93
2019-02-17T07:13:54.778Z,6.23
2019-02-17T07:16:23.713Z,6.17
2019-02-17T07:18:52.472Z,6.57
2019-02-17T07:21:20.947Z,5.97
2019-02-17T07:23:49.411Z,5.93
2019-02-17T07:26:17.943Z,6.63
2019-02-17T07:28:46.401Z,6.60
2019-02-17T07:31:15.177Z,5.80
2019-02-17T07:33:43.913Z,5.50
2019-02-17T07:36:12.661Z,5.63
2019-02-17T07:38:41.117Z,5.10
2019-02-17T07:41:09.589Z,6.13
2019-02-17T07:43:38.064Z,6.23
2019-02-17T07:46:06.600Z,6.20
2019-02-17T07:48:35.089Z,5.93
2019-02-17T07:51:03.972Z,6.50
2019-02-17T07:53:32.428Z,5.90
2019-02-17T07:56:00.908Z,7.00
2019-02-17T07:58:29.659Z,6.90
2019-02-17T08:00:58.121Z,6.53
2019-02-17T08:03:26.613Z,7.73
2019-02-17T08:05:55.066Z,9.50
2019-02-17T08:08:23.608Z,11.30
2019-02-17T08:10:52.084Z,12.87
2019-02-17T08:13:20.543Z,13.07
2019-02-17T08:15:49.023Z,17.20
2019-02-17T08:18:17.503Z,15.53
2019-02-17T08:20:45.951Z,14.60
2019-02-17T08:23:14.431Z,14.80
2019-02-17T08:25:42.912Z,14.37
2019-02-17T08:28:11.389Z,15.37
2019-02-17T08:30:39.857Z,15.30
2019-02-17T08:33:08.319Z,15.17
2019-02-17T08:35:36.783Z,14.77
2019-02-17T08:38:05.671Z,15.13
2019-02-17T08:40:34.211Z,14.63
2019-02-17T08:43:02.759Z,14.80
2019-02-17T08:45:31.215Z,15.70
2019-02-17T08:47:59.962Z,15.37
2019-02-17T08:50:28.429Z,16.40
2019-02-17T08:52:56.899Z,15.50
2019-02-17T08:55:25.345Z,15.03
2019-02-17T08:57:53.821Z,15.10
2019-02-17T09:00:22.573Z,15.27
2019-02-17T09:02:51.055Z,14.47
2019-02-17T09:05:19.846Z,16.70
2019-02-17T09:07:48.634Z,15.37
2019-02-17T09:10:17.105Z,17.03
2019-02-17T09:12:45.597Z,15.27
2019-02-17T09:15:14.122Z,15.57
2019-02-17T09:17:42.651Z,14.57
2019-02-17T09:20:11.890Z,14.80
2019-02-17T09:22:40.355Z,13.60
2019-02-17T09:25:11.370Z,13.20
2019-02-17T09:27:39.890Z,12.20
2019-02-17T09:30:11.400Z,12.20
2019-02-17T09:32:39.860Z,12.13
2019-02-17T09:35:08.410Z,12.47
2019-02-17T09:37:36.858Z,12.37
2019-02-17T09:40:07.879Z,11.90
2019-02-17T09:42:36.701Z,10.93
2019-02-17T09:45:08.070Z,10.60
2019-02-17T09:47:36.583Z,10.27
2019-02-17T09:50:08.493Z,11.07
2019-02-17T09:52:38.917Z,11.33
2019-02-17T09:55:09.257Z,10.53
2019-02-17T09:57:39.300Z,10.50
2019-02-17T10:00:12.811Z,10.30
2019-02-17T10:02:41.274Z,9.77
2019-02-17T10:05:11.862Z,9.57
2019-02-17T10:07:40.315Z,11.13
2019-02-17T10:10:20.141Z,13.87
2019-02-17T10:12:48.626Z,15.30
2019-02-17T10:15:17.101Z,17.30
2019-02-17T10:17:45.592Z,20.47
2019-02-17T10:20:15.387Z,21.33
2019-02-17T10:22:44.269Z,20.83
2019-02-17T10:25:12.893Z,19.83
2019-02-17T10:27:41.337Z,20.73
2019-02-17T10:30:12.649Z,19.33
2019-02-17T10:32:41.169Z,18.83
2019-02-17T10:35:09.787Z,16.27
2019-02-17T10:37:38.242Z,16.67
2019-02-17T10:40:09.813Z,17.87
2019-02-17T10:42:38.265Z,18.23
2019-02-17T10:45:07.881Z,16.40
2019-02-17T10:47:36.335Z,17.60
2019-02-17T10:50:08.119Z,18.10
2019-02-17T10:52:36.600Z,19.07
2019-02-17T10:55:07.539Z,18.43
2019-02-17T10:57:36.007Z,17.07
2019-02-17T11:00:18.895Z,18.00
2019-02-17T11:02:48.070Z,18.00
2019-02-17T11:05:16.968Z,18.50
2019-02-17T11:07:45.518Z,16.37
2019-02-17T11:10:14.537Z,12.97
2019-02-17T11:12:43.023Z,12.20
2019-02-17T11:15:14.708Z,13.53
2019-02-17T11:17:43.526Z,12.13
2019-02-17T11:20:12.145Z,13.70
2019-02-17T11:22:40.646Z,11.53
2019-02-17T11:25:09.261Z,11.30
2019-02-17T11:27:37.795Z,13.77
2019-02-17T11:30:09.371Z,13.00
2019-02-17T11:32:37.899Z,12.73
2019-02-17T11:35:07.110Z,12.17
2019-02-17T11:37:35.835Z,13.33
2019-02-17T11:40:06.759Z,12.50
2019-02-17T11:42:35.315Z,13.13
2019-02-17T11:45:05.850Z,13.17
2019-02-17T11:47:34.324Z,13.83
2019-02-17T11:50:02.807Z,14.87
2019-02-17T11:52:31.271Z,16.63
2019-02-17T11:55:00.116Z,14.60
2019-02-17T11:57:28.624Z,13.27
2019-02-17T11:59:57.125Z,13.23
2019-02-17T12:02:25.583Z,13.83
2019-02-17T12:04:54.057Z,12.33
2019-02-17T12:07:22.789Z,11.87
2019-02-17T12:09:51.275Z,12.90
2019-02-17T12:12:19.763Z,11.80
2019-02-17T12:14:48.231Z,12.17
2019-02-17T12:17:16.695Z,12.53
2019-02-17T12:19:45.517Z,11.70
2019-02-17T12:22:24.640Z,11.53
2019-02-17T12:24:54.468Z,10.83
2019-02-17T12:27:24.585Z,10.10
2019-02-17T12:29:54.416Z,10.23
2019-02-17T12:32:24.549Z,10.60
2019-02-17T12:34:53.011Z,11.50
2019-02-17T12:37:21.503Z,10.73
2019-02-17T12:39:49.983Z,11.37
2019-02-17T12:42:18.617Z,11.63
2019-02-17T12:44:47.096Z,11.50
2019-02-17T12:47:16.020Z,11.50
2019-02-17T12:49:44.499Z,10.50
2019-02-17T12:52:12.959Z,10.13
2019-02-17T12:54:41.430Z,11.00
2019-02-17T12:57:09.920Z,10.57
2019-02-17T12:59:38.419Z,11.30
2019-02-17T13:02:06.873Z,9.47
2019-02-17T13:04:35.705Z,9.43
2019-02-17T13:07:04.494Z,9.57
2019-02-17T13:09:32.987Z,9.13
2019-02-17T13:12:01.465Z,9.63
2019-02-17T13:14:29.925Z,10.10
2019-02-17T13:16:58.416Z,8.50
2019-02-17T13:19:27.141Z,8.50
2019-02-17T13:21:55.643Z,8.73
2019-02-17T13:24:24.123Z,9.40
2019-02-17T13:26:52.633Z,8.13
2019-02-17T13:29:21.347Z,8.23
2019-02-17T13:31:49.811Z,8.43
2019-02-17T13:34:18.310Z,7.13
2019-02-17T13:36:46.785Z,7.03
2019-02-17T13:39:15.258Z,7.23
2019-02-17T13:41:43.971Z,6.77
2019-02-17T13:44:12.449Z,6.80
2019-02-17T13:46:41.229Z,5.77
2019-02-17T13:49:09.697Z,5.50
2019-02-17T13:51:38.172Z,5.50
2019-02-17T13:54:06.661Z,5.57
2019-02-17T13:56:35.449Z,5.17
2019-02-17T13:59:03.941Z,5.07
2019-02-17T14:01:32.409Z,5.20
2019-02-17T14:04:01.215Z,5.43
2019-02-17T14:06:29.749Z,5.20
2019-02-17T14:08:58.199Z,4.90
2019-02-17T14:11:26.687Z,4.93
2019-02-17T14:13:55.133Z,5.70
2019-02-17T14:16:23.935Z,5.40
2019-02-17T14:18:52.403Z,5.33
2019-02-17T14:21:21.190Z,5.23
2019-02-17T14:23:49.683Z,5.13
2019-02-17T14:26:18.437Z,4.87
2019-02-17T14:28:46.995Z,4.97
2019-02-17T14:31:15.572Z,4.83
2019-02-17T14:33:44.110Z,4.97
2019-02-17T14:36:12.562Z,4.70
2019-02-17T14:38:41.061Z,7.03
2019-02-17T14:41:09.602Z,7.00
2019-02-17T14:43:38.095Z,6.37
2019-02-17T14:46:06.541Z,7.77
2019-02-17T14:48:35.014Z,6.63
2019-02-17T14:51:03.552Z,6.53
2019-02-17T14:53:32.043Z,6.30
2019-02-17T14:56:00.594Z,7.50
2019-02-17T14:58:29.047Z,7.10
2019-02-17T15:00:57.518Z,7.57
2019-02-17T15:03:25.992Z,7.33
2019-02-17T15:05:54.471Z,7.77
2019-02-17T15:08:22.945Z,7.00
2019-02-17T15:10:51.420Z,7.13
2019-02-17T15:13:24.492Z,8.57
2019-02-17T15:15:50.559Z,7.90
2019-02-17T15:18:19.039Z,7.87
2019-02-17T15:20:47.507Z,8.67
2019-02-17T15:23:15.975Z,8.90
2019-02-17T15:25:44.454Z,8.60
2019-02-17T15:28:12.945Z,9.03
2019-02-17T15:30:41.406Z,8.83
2019-02-17T15:33:09.893Z,9.60
2019-02-17T15:35:38.363Z,9.50
2019-02-17T15:38:07.220Z,10.30
2019-02-17T15:40:35.668Z,9.87
2019-02-17T15:43:04.148Z,10.30
2019-02-17T15:45:32.619Z,10.50
2019-02-17T15:48:01.133Z,11.50
2019-02-17T15:50:29.931Z,10.87
2019-02-17T15:52:58.391Z,11.37
2019-02-17T15:55:26.888Z,11.13
2019-02-17T15:57:55.357Z,11.00
2019-02-17T16:00:23.835Z,11.37
2019-02-17T16:02:52.366Z,12.30
2019-02-17T16:05:21.133Z,11.90
2019-02-17T16:07:49.914Z,11.40
2019-02-17T16:10:18.662Z,16.03
2019-02-17T16:12:47.129Z,14.10
2019-02-17T16:15:26.186Z,13.37
2019-02-17T16:17:54.734Z,12.60
2019-02-17T16:20:23.201Z,16.47
2019-02-17T16:22:51.672Z,14.80
2019-02-17T16:25:20.152Z,13.13
2019-02-17T16:27:48.625Z,14.17
2019-02-17T16:30:19.249Z,13.87
2019-02-17T16:32:48.043Z,14.63
2019-02-17T16:35:16.573Z,14.43
2019-02-17T16:37:45.299Z,14.90
2019-02-17T16:40:18.505Z,13.60
2019-02-17T16:42:46.991Z,14.67
2019-02-17T16:45:15.572Z,13.90
2019-02-17T16:47:46.730Z,13.60
2019-02-17T16:50:23.215Z,13.37
2019-02-17T16:52:51.978Z,11.90
2019-02-17T16:55:20.525Z,13.33
2019-02-17T16:57:49.003Z,13.33
2019-02-17T17:00:23.186Z,13.07
2019-02-17T17:02:53.083Z,12.77
2019-02-17T17:05:23.110Z,12.83
2019-02-17T17:07:51.584Z,13.13
2019-02-17T17:10:20.196Z,13.70
2019-02-17T17:12:49.156Z,12.53
2019-02-17T17:15:17.947Z,12.50
2019-02-17T17:17:46.427Z,12.80
2019-02-17T17:20:19.443Z,12.07
2019-02-17T17:22:48.221Z,11.90
2019-02-17T17:25:16.906Z,12.47
2019-02-17T17:27:45.669Z,11.90
2019-02-17T17:30:16.416Z,11.87
2019-02-17T17:32:44.904Z,11.17
2019-02-17T17:35:13.614Z,11.80
2019-02-17T17:37:42.097Z,11.47
2019-02-17T17:40:14.921Z,11.73
2019-02-17T17:42:43.390Z,11.20
2019-02-17T17:45:14.393Z,11.07
2019-02-17T17:47:42.964Z,11.10
2019-02-17T17:50:13.378Z,10.00
2019-02-17T17:52:41.833Z,10.10
2019-02-17T17:55:11.703Z,9.87
2019-02-17T17:57:40.170Z,11.17
2019-02-17T18:00:15.549Z,10.67
2019-02-17T18:02:44.090Z,10.00
2019-02-17T18:05:12.707Z,9.87
2019-02-17T18:07:41.503Z,10.43
2019-02-17T18:10:14.660Z,9.30
2019-02-17T18:12:43.186Z,9.50
2019-02-17T18:15:21.098Z,9.57
2019-02-17T18:17:54.228Z,9.57
2019-02-17T18:20:19.791Z,9.10
2019-02-17T18:22:48.271Z,10.73
2019-02-17T18:25:16.808Z,9.97
2019-02-17T18:27:45.301Z,9.90
2019-02-17T18:30:16.743Z,9.00
2019-02-17T18:32:45.483Z,9.43
2019-02-17T18:35:19.591Z,9.90
2019-02-17T18:37:44.543Z,8.93
2019-02-17T18:40:14.950Z,8.80
2019-02-17T18:42:43.779Z,9.20
2019-02-17T18:45:14.061Z,8.37
2019-02-17T18:47:42.539Z,8.60
2019-02-17T18:50:13.643Z,8.80
2019-02-17T18:52:42.171Z,8.97
2019-02-17T18:55:12.299Z,8.37
2019-02-17T18:57:49.548Z,8.17
2019-02-17T19:00:19.523Z,7.90
2019-02-17T19:02:48.308Z,7.63
2019-02-17T19:05:17.100Z,7.17
2019-02-17T19:07:45.660Z,8.00
2019-02-17T19:10:14.751Z,7.50
2019-02-17T19:12:43.674Z,7.30
2019-02-17T19:15:13.985Z,7.67
2019-02-17T19:17:42.546Z,6.80
2019-02-17T19:20:13.647Z,6.77
2019-02-17T19:22:42.118Z,6.80
2019-02-17T19:25:10.994Z,6.13
2019-02-17T19:27:39.809Z,6.00
2019-02-17T19:30:11.557Z,6.13
2019-02-17T19:32:40.022Z,6.27
2019-02-17T19:35:11.383Z,5.80
2019-02-17T19:37:39.845Z,5.97
2019-02-17T19:40:10.753Z,6.60
2019-02-17T19:42:39.227Z,6.10
2019-02-17T19:45:10.621Z,6.13
2019-02-17T19:47:39.083Z,5.80
2019-02-17T19:50:12.887Z,6.43
2019-02-17T19:52:41.503Z,5.97
2019-02-17T19:55:13.652Z,6.00
2019-02-17T19:57:42.170Z,6.13
2019-02-17T20:00:18.631Z,6.37
2019-02-17T20:03:00.728Z,6.20
2019-02-17T20:05:30.938Z,5.80
2019-02-17T20:07:59.418Z,6.63
2019-02-17T20:10:27.865Z,6.17
2019-02-17T20:12:56.649Z,6.00
2019-02-17T20:15:26.756Z,6.47
2019-02-17T20:17:55.246Z,6.80
2019-02-17T20:20:23.699Z,6.73
2019-02-17T20:22:52.175Z,6.57
2019-02-17T20:25:20.631Z,7.00
2019-02-17T20:27:49.106Z,6.83
2019-02-17T20:30:17.563Z,6.93
2019-02-17T20:32:46.392Z,6.90
2019-02-17T20:35:14.919Z,6.77
2019-02-17T20:37:43.389Z,7.00
2019-02-17T20:40:18.515Z,6.60
2019-02-17T20:42:47.058Z,7.13
2019-02-17T20:45:15.593Z,7.00
2019-02-17T20:47:44.056Z,7.57
2019-02-17T20:50:21.661Z,6.50
2019-02-17T20:52:50.434Z,6.73
2019-02-17T20:55:18.998Z,6.97
2019-02-17T20:57:47.451Z,6.80
2019-02-17T21:00:26.439Z,7.30
2019-02-17T21:02:54.908Z,6.60
2019-02-17T21:05:23.392Z,6.63
2019-02-17T21:07:51.843Z,6.43
2019-02-17T21:10:20.328Z,6.87
2019-02-17T21:12:48.920Z,6.70
2019-02-17T21:15:19.114Z,6.93
2019-02-17T21:17:47.573Z,6.80
2019-02-17T21:20:17.955Z,7.50
2019-02-17T21:22:46.497Z,6.53
2019-02-17T21:25:15.536Z,6.50
2019-02-17T21:27:44.027Z,7.87
2019-02-17T21:30:15.549Z,7.10
2019-02-17T21:32:44.367Z,7.80
2019-02-17T21:35:14.473Z,7.77
2019-02-17T21:37:42.931Z,7.00
2019-02-17T21:40:12.843Z,6.80
2019-02-17T21:42:41.361Z,8.27
2019-02-17T21:45:16.517Z,7.20
2019-02-17T21:47:45.040Z,7.87
2019-02-17T21:50:14.766Z,6.93
2019-02-17T21:52:43.374Z,7.07
2019-02-17T21:55:12.866Z,7.63
2019-02-17T21:57:41.482Z,6.97
2019-02-17T22:00:20.924Z,7.40
2019-02-17T22:02:49.414Z,7.70
2019-02-17T22:05:18.721Z,6.67
2019-02-17T22:07:47.179Z,7.03
2019-02-17T22:10:17.780Z,6.47
2019-02-17T22:12:46.236Z,6.03
2019-02-17T22:15:16.822Z,6.23
2019-02-17T22:17:45.608Z,6.40
2019-02-17T22:20:14.137Z,6.43
2019-02-17T22:22:42.611Z,6.67
2019-02-17T22:25:11.203Z,6.80
2019-02-17T22:27:39.667Z,6.73
2019-02-17T22:30:10.779Z,5.77
2019-02-17T22:32:39.332Z,5.50
2019-02-17T22:35:07.848Z,5.40
2019-02-17T22:37:36.320Z,5.70
2019-02-17T22:40:08.202Z,5.73
2019-02-17T22:42:36.763Z,5.07
2019-02-17T22:45:08.161Z,5.23
2019-02-17T22:47:36.609Z,5.30
2019-02-17T22:50:13.305Z,5.97
2019-02-17T22:52:41.842Z,5.47
2019-02-17T22:55:11.573Z,6.93
2019-02-17T22:57:40.015Z,5.67
2019-02-17T23:00:32.666Z,5.67
2019-02-17T23:03:01.195Z,4.97
2019-02-17T23:05:29.796Z,4.80
2019-02-17T23:07:58.564Z,5.93
2019-02-17T23:10:27.112Z,7.03
2019-02-17T23:12:55.572Z,6.57
2019-02-17T23:15:24.047Z,6.17
2019-02-17T23:17:52.532Z,5.77
2019-02-17T23:20:20.993Z,6.37
2019-02-17T23:22:49.467Z,5.67
2019-02-17T23:25:17.992Z,5.30
2019-02-17T23:27:46.743Z,4.93
2019-02-17T23:30:15.256Z,5.10
2019-02-17T23:32:43.830Z,4.80
2019-02-17T23:35:12.579Z,4.80
2019-02-17T23:37:41.372Z,4.90
2019-02-17T23:40:11.289Z,5.07
2019-02-17T23:42:40.080Z,5.83
2019-02-17T23:45:12.991Z,5.03
2019-02-17T23:47:41.537Z,5.40
2019-02-17T23:50:11.424Z,5.40
2019-02-17T23:52:40.062Z,4.67
2019-02-17T23:55:10.381Z,4.83
2019-02-17T23:57:39.289Z,5.73
